sensor_id;sensor_type;location;lat;lon;timestamp;P1;durP1;ratioP1;P2;durP2;ratioP2
33987;SDS011;37428;53.580;-1.666;2023-07-30T00:00:15;13.57;;;2.08;;
33987;SDS011;37428;53.580;-1.666;2023-07-30T00:03:18;16.60;;;3.22;;
33987;SDS011;37428;53.580;-1.666;2023-07-30T00:06:29;16.80;;;3.20;;
33987;SDS011;37428;53.580;-1.666;2023-07-30T00:13:17;12.10;;;2.50;;
33987;SDS011;37428;53.580;-1.666;2023-07-30T00:16:21;15.18;;;3.65;;
33987;SDS011;37428;53.580;-1.666;2023-07-30T00:19:23;15.10;;;3.03;;
33987;SDS011;37428;53.580;-1.666;2023-07-30T00:22:25;12.48;;;2.35;;
33987;SDS011;37428;53.580;-1.666;2023-07-30T00:25:27;14.20;;;2.72;;
33987;SDS011;37428;53.580;-1.666;2023-07-30T00:28:55;14.98;;;2.63;;
33987;SDS011;37428;53.580;-1.666;2023-07-30T00:32:13;15.82;;;2.80;;
33987;SDS011;37428;53.580;-1.666;2023-07-30T00:35:18;15.43;;;2.58;;
33987;SDS011;37428;53.580;-1.666;2023-07-30T00:38:43;23.33;;;3.22;;
33987;SDS011;37428;53.580;-1.666;2023-07-30T00:41:59;11.68;;;2.50;;
33987;SDS011;37428;53.580;-1.666;2023-07-30T00:45:08;18.77;;;3.00;;
33987;SDS011;37428;53.580;-1.666;2023-07-30T00:51:31;13.70;;;3.92;;
33987;SDS011;37428;53.580;-1.666;2023-07-30T00:54:37;14.02;;;2.90;;
33987;SDS011;37428;53.580;-1.666;2023-07-30T00:57:40;15.90;;;2.50;;
33987;SDS011;37428;53.580;-1.666;2023-07-30T01:00:44;12.00;;;2.95;;
33987;SDS011;37428;53.580;-1.666;2023-07-30T01:03:48;10.15;;;2.40;;
33987;SDS011;37428;53.580;-1.666;2023-07-30T01:07:05;17.77;;;2.65;;
33987;SDS011;37428;53.580;-1.666;2023-07-30T01:10:09;12.68;;;2.50;;
33987;SDS011;37428;53.580;-1.666;2023-07-30T01:16:21;13.07;;;3.22;;
33987;SDS011;37428;53.580;-1.666;2023-07-30T01:19:26;12.23;;;2.72;;
33987;SDS011;37428;53.580;-1.666;2023-07-30T01:22:30;16.98;;;3.22;;
33987;SDS011;37428;53.580;-1.666;2023-07-30T01:25:33;16.38;;;3.33;;
33987;SDS011;37428;53.580;-1.666;2023-07-30T01:28:53;11.52;;;2.97;;
33987;SDS011;37428;53.580;-1.666;2023-07-30T01:32:16;11.20;;;3.53;;
33987;SDS011;37428;53.580;-1.666;2023-07-30T01:35:21;16.98;;;3.03;;
33987;SDS011;37428;53.580;-1.666;2023-07-30T01:38:31;13.48;;;2.50;;
33987;SDS011;37428;53.580;-1.666;2023-07-30T01:41:34;10.80;;;2.60;;
33987;SDS011;37428;53.580;-1.666;2023-07-30T01:44:40;16.17;;;2.88;;
33987;SDS011;37428;53.580;-1.666;2023-07-30T01:47:43;17.75;;;2.95;;
33987;SDS011;37428;53.580;-1.666;2023-07-30T01:51:16;16.00;;;2.65;;
33987;SDS011;37428;53.580;-1.666;2023-07-30T01:54:13;18.80;;;3.92;;
33987;SDS011;37428;53.580;-1.666;2023-07-30T01:57:42;17.42;;;3.97;;
33987;SDS011;37428;53.580;-1.666;2023-07-30T02:00:44;13.70;;;2.38;;
33987;SDS011;37428;53.580;-1.666;2023-07-30T02:03:54;15.30;;;2.58;;
33987;SDS011;37428;53.580;-1.666;2023-07-30T02:07:03;9.63;;;2.38;;
33987;SDS011;37428;53.580;-1.666;2023-07-30T02:10:10;14.68;;;2.72;;
33987;SDS011;37428;53.580;-1.666;2023-07-30T02:13:12;13.13;;;2.88;;
33987;SDS011;37428;53.580;-1.666;2023-07-30T02:16:14;9.15;;;2.28;;
33987;SDS011;37428;53.580;-1.666;2023-07-30T02:19:37;10.98;;;2.85;;
33987;SDS011;37428;53.580;-1.666;2023-07-30T02:22:41;10.38;;;2.63;;
33987;SDS011;37428;53.580;-1.666;2023-07-30T02:29:13;12.75;;;2.65;;
33987;SDS011;37428;53.580;-1.666;2023-07-30T02:35:47;12.23;;;2.22;;
33987;SDS011;37428;53.580;-1.666;2023-07-30T02:38:49;8.82;;;2.40;;
33987;SDS011;37428;53.580;-1.666;2023-07-30T02:41:55;9.50;;;2.47;;
33987;SDS011;37428;53.580;-1.666;2023-07-30T02:44:59;9.63;;;2.55;;
33987;SDS011;37428;53.580;-1.666;2023-07-30T02:48:23;8.25;;;2.50;;
33987;SDS011;37428;53.580;-1.666;2023-07-30T02:51:35;12.80;;;3.50;;
33987;SDS011;37428;53.580;-1.666;2023-07-30T02:54:37;6.97;;;2.55;;
33987;SDS011;37428;53.580;-1.666;2023-07-30T02:57:41;8.68;;;2.95;;
33987;SDS011;37428;53.580;-1.666;2023-07-30T03:00:55;6.75;;;2.50;;
33987;SDS011;37428;53.580;-1.666;2023-07-30T03:04:18;6.47;;;2.22;;
33987;SDS011;37428;53.580;-1.666;2023-07-30T03:07:36;4.72;;;2.15;;
33987;SDS011;37428;53.580;-1.666;2023-07-30T03:10:38;7.55;;;3.17;;
33987;SDS011;37428;53.580;-1.666;2023-07-30T03:13:53;8.18;;;2.50;;
33987;SDS011;37428;53.580;-1.666;2023-07-30T03:17:09;8.32;;;2.38;;
33987;SDS011;37428;53.580;-1.666;2023-07-30T03:20:31;8.48;;;1.92;;
33987;SDS011;37428;53.580;-1.666;2023-07-30T03:23:37;10.13;;;2.20;;
33987;SDS011;37428;53.580;-1.666;2023-07-30T03:26:44;6.75;;;1.95;;
33987;SDS011;37428;53.580;-1.666;2023-07-30T03:29:48;13.85;;;2.17;;
33987;SDS011;37428;53.580;-1.666;2023-07-30T03:32:50;4.75;;;1.55;;
33987;SDS011;37428;53.580;-1.666;2023-07-30T03:36:01;6.20;;;2.00;;
33987;SDS011;37428;53.580;-1.666;2023-07-30T03:39:17;9.13;;;2.60;;
33987;SDS011;37428;53.580;-1.666;2023-07-30T03:42:20;5.05;;;1.48;;
33987;SDS011;37428;53.580;-1.666;2023-07-30T03:48:59;8.07;;;1.75;;
33987;SDS011;37428;53.580;-1.666;2023-07-30T03:52:07;6.50;;;1.85;;
33987;SDS011;37428;53.580;-1.666;2023-07-30T03:55:10;5.03;;;1.60;;
33987;SDS011;37428;53.580;-1.666;2023-07-30T03:58:13;7.95;;;1.33;;
33987;SDS011;37428;53.580;-1.666;2023-07-30T04:01:17;5.05;;;1.20;;
33987;SDS011;37428;53.580;-1.666;2023-07-30T04:04:23;7.82;;;1.25;;
33987;SDS011;37428;53.580;-1.666;2023-07-30T04:07:58;8.18;;;1.17;;
33987;SDS011;37428;53.580;-1.666;2023-07-30T04:11:00;5.10;;;1.50;;
33987;SDS011;37428;53.580;-1.666;2023-07-30T04:14:08;1.38;;;1.20;;
33987;SDS011;37428;53.580;-1.666;2023-07-30T04:17:34;5.85;;;1.00;;
33987;SDS011;37428;53.580;-1.666;2023-07-30T04:20:43;2.97;;;0.90;;
33987;SDS011;37428;53.580;-1.666;2023-07-30T04:23:47;7.50;;;1.17;;
33987;SDS011;37428;53.580;-1.666;2023-07-30T04:27:01;6.32;;;1.38;;
33987;SDS011;37428;53.580;-1.666;2023-07-30T04:30:04;8.93;;;1.63;;
33987;SDS011;37428;53.580;-1.666;2023-07-30T04:33:11;6.38;;;1.45;;
33987;SDS011;37428;53.580;-1.666;2023-07-30T04:36:31;5.93;;;1.35;;
33987;SDS011;37428;53.580;-1.666;2023-07-30T04:39:49;7.78;;;1.25;;
33987;SDS011;37428;53.580;-1.666;2023-07-30T04:42:51;4.20;;;1.20;;
33987;SDS011;37428;53.580;-1.666;2023-07-30T04:45:53;5.50;;;0.95;;
33987;SDS011;37428;53.580;-1.666;2023-07-30T04:48:57;5.35;;;1.40;;
33987;SDS011;37428;53.580;-1.666;2023-07-30T04:52:00;3.55;;;1.02;;
33987;SDS011;37428;53.580;-1.666;2023-07-30T04:55:03;6.00;;;1.30;;
33987;SDS011;37428;53.580;-1.666;2023-07-30T04:58:07;2.33;;;0.80;;
33987;SDS011;37428;53.580;-1.666;2023-07-30T05:01:16;5.35;;;1.17;;
33987;SDS011;37428;53.580;-1.666;2023-07-30T05:04:26;3.92;;;1.20;;
33987;SDS011;37428;53.580;-1.666;2023-07-30T05:07:31;4.68;;;1.70;;
33987;SDS011;37428;53.580;-1.666;2023-07-30T05:10:37;3.45;;;1.20;;
33987;SDS011;37428;53.580;-1.666;2023-07-30T05:13:57;6.45;;;1.52;;
33987;SDS011;37428;53.580;-1.666;2023-07-30T05:17:02;5.90;;;1.02;;
33987;SDS011;37428;53.580;-1.666;2023-07-30T05:20:12;4.03;;;1.58;;
33987;SDS011;37428;53.580;-1.666;2023-07-30T05:23:16;4.85;;;1.27;;
33987;SDS011;37428;53.580;-1.666;2023-07-30T05:26:21;5.93;;;0.90;;
33987;SDS011;37428;53.580;-1.666;2023-07-30T05:29:30;4.68;;;1.55;;
33987;SDS011;37428;53.580;-1.666;2023-07-30T05:32:46;3.60;;;1.00;;
33987;SDS011;37428;53.580;-1.666;2023-07-30T05:35:51;3.58;;;1.08;;
33987;SDS011;37428;53.580;-1.666;2023-07-30T05:38:56;2.85;;;0.95;;
33987;SDS011;37428;53.580;-1.666;2023-07-30T05:42:16;3.22;;;0.85;;
33987;SDS011;37428;53.580;-1.666;2023-07-30T05:45:24;2.63;;;0.98;;
33987;SDS011;37428;53.580;-1.666;2023-07-30T05:48:26;3.78;;;1.00;;
33987;SDS011;37428;53.580;-1.666;2023-07-30T05:51:28;2.30;;;0.77;;
33987;SDS011;37428;53.580;-1.666;2023-07-30T05:54:32;4.68;;;1.17;;
33987;SDS011;37428;53.580;-1.666;2023-07-30T05:57:34;4.63;;;1.13;;
33987;SDS011;37428;53.580;-1.666;2023-07-30T06:00:36;4.97;;;0.90;;
33987;SDS011;37428;53.580;-1.666;2023-07-30T06:03:38;2.60;;;1.20;;
33987;SDS011;37428;53.580;-1.666;2023-07-30T06:06:42;4.05;;;1.13;;
33987;SDS011;37428;53.580;-1.666;2023-07-30T06:09:51;6.00;;;2.45;;
33987;SDS011;37428;53.580;-1.666;2023-07-30T06:12:55;4.55;;;0.93;;
33987;SDS011;37428;53.580;-1.666;2023-07-30T06:16:11;5.90;;;1.13;;
33987;SDS011;37428;53.580;-1.666;2023-07-30T06:19:20;7.40;;;1.60;;
33987;SDS011;37428;53.580;-1.666;2023-07-30T06:22:22;5.50;;;1.42;;
33987;SDS011;37428;53.580;-1.666;2023-07-30T06:25:27;5.00;;;1.23;;
33987;SDS011;37428;53.580;-1.666;2023-07-30T06:28:29;6.07;;;1.83;;
33987;SDS011;37428;53.580;-1.666;2023-07-30T06:31:45;5.30;;;1.20;;
33987;SDS011;37428;53.580;-1.666;2023-07-30T06:34:55;3.00;;;1.08;;
33987;SDS011;37428;53.580;-1.666;2023-07-30T06:37:57;2.10;;;0.90;;
33987;SDS011;37428;53.580;-1.666;2023-07-30T06:41:01;5.63;;;1.50;;
33987;SDS011;37428;53.580;-1.666;2023-07-30T06:44:08;6.35;;;2.15;;
33987;SDS011;37428;53.580;-1.666;2023-07-30T06:47:10;5.63;;;1.60;;
33987;SDS011;37428;53.580;-1.666;2023-07-30T06:50:36;6.57;;;1.67;;
33987;SDS011;37428;53.580;-1.666;2023-07-30T06:53:38;9.23;;;1.60;;
33987;SDS011;37428;53.580;-1.666;2023-07-30T06:57:07;7.47;;;1.45;;
33987;SDS011;37428;53.580;-1.666;2023-07-30T07:00:12;7.32;;;2.17;;
33987;SDS011;37428;53.580;-1.666;2023-07-30T07:03:25;7.53;;;1.52;;
33987;SDS011;37428;53.580;-1.666;2023-07-30T07:06:28;6.28;;;1.73;;
33987;SDS011;37428;53.580;-1.666;2023-07-30T07:09:31;9.23;;;1.75;;
33987;SDS011;37428;53.580;-1.666;2023-07-30T07:12:43;14.32;;;3.53;;
33987;SDS011;37428;53.580;-1.666;2023-07-30T07:15:51;9.82;;;1.73;;
33987;SDS011;37428;53.580;-1.666;2023-07-30T07:18:59;7.28;;;1.38;;
33987;SDS011;37428;53.580;-1.666;2023-07-30T07:22:09;12.00;;;2.15;;
33987;SDS011;37428;53.580;-1.666;2023-07-30T07:25:11;6.72;;;1.52;;
33987;SDS011;37428;53.580;-1.666;2023-07-30T07:28:20;4.75;;;1.50;;
33987;SDS011;37428;53.580;-1.666;2023-07-30T07:31:22;6.65;;;1.73;;
33987;SDS011;37428;53.580;-1.666;2023-07-30T07:34:30;9.43;;;1.80;;
33987;SDS011;37428;53.580;-1.666;2023-07-30T07:37:34;5.32;;;1.05;;
33987;SDS011;37428;53.580;-1.666;2023-07-30T07:40:36;6.60;;;1.42;;
33987;SDS011;37428;53.580;-1.666;2023-07-30T07:43:42;7.45;;;1.33;;
33987;SDS011;37428;53.580;-1.666;2023-07-30T07:46:44;5.15;;;1.75;;
33987;SDS011;37428;53.580;-1.666;2023-07-30T07:49:46;4.40;;;1.25;;
33987;SDS011;37428;53.580;-1.666;2023-07-30T07:52:51;5.50;;;1.55;;
33987;SDS011;37428;53.580;-1.666;2023-07-30T07:55:53;5.20;;;1.13;;
33987;SDS011;37428;53.580;-1.666;2023-07-30T07:58:57;9.20;;;1.48;;
33987;SDS011;37428;53.580;-1.666;2023-07-30T08:02:06;5.68;;;1.27;;
33987;SDS011;37428;53.580;-1.666;2023-07-30T08:05:14;4.38;;;1.23;;
33987;SDS011;37428;53.580;-1.666;2023-07-30T08:08:25;4.72;;;1.40;;
33987;SDS011;37428;53.580;-1.666;2023-07-30T08:14:30;6.15;;;1.40;;
33987;SDS011;37428;53.580;-1.666;2023-07-30T08:17:34;5.20;;;1.33;;
33987;SDS011;37428;53.580;-1.666;2023-07-30T08:20:38;6.07;;;1.20;;
33987;SDS011;37428;53.580;-1.666;2023-07-30T08:23:40;6.75;;;1.30;;
33987;SDS011;37428;53.580;-1.666;2023-07-30T08:26:42;5.95;;;1.23;;
33987;SDS011;37428;53.580;-1.666;2023-07-30T08:29:55;6.60;;;1.27;;
33987;SDS011;37428;53.580;-1.666;2023-07-30T08:33:05;4.32;;;1.70;;
33987;SDS011;37428;53.580;-1.666;2023-07-30T08:36:07;4.93;;;1.63;;
33987;SDS011;37428;53.580;-1.666;2023-07-30T08:39:13;5.60;;;1.20;;
33987;SDS011;37428;53.580;-1.666;2023-07-30T08:42:21;1.67;;;0.90;;
33987;SDS011;37428;53.580;-1.666;2023-07-30T08:45:25;3.75;;;0.90;;
33987;SDS011;37428;53.580;-1.666;2023-07-30T08:48:27;4.97;;;1.42;;
33987;SDS011;37428;53.580;-1.666;2023-07-30T08:51:30;2.35;;;0.90;;
33987;SDS011;37428;53.580;-1.666;2023-07-30T08:54:44;3.40;;;1.13;;
33987;SDS011;37428;53.580;-1.666;2023-07-30T08:57:50;4.60;;;1.20;;
33987;SDS011;37428;53.580;-1.666;2023-07-30T09:00:55;3.33;;;0.80;;
33987;SDS011;37428;53.580;-1.666;2023-07-30T09:04:12;3.90;;;0.68;;
33987;SDS011;37428;53.580;-1.666;2023-07-30T09:07:19;4.53;;;1.05;;
33987;SDS011;37428;53.580;-1.666;2023-07-30T09:10:23;2.28;;;0.88;;
33987;SDS011;37428;53.580;-1.666;2023-07-30T09:13:26;6.05;;;1.20;;
33987;SDS011;37428;53.580;-1.666;2023-07-30T09:16:30;4.75;;;1.27;;
33987;SDS011;37428;53.580;-1.666;2023-07-30T09:19:34;4.43;;;0.95;;
33987;SDS011;37428;53.580;-1.666;2023-07-30T09:22:38;4.45;;;1.40;;
33987;SDS011;37428;53.580;-1.666;2023-07-30T09:25:49;4.15;;;0.80;;
33987;SDS011;37428;53.580;-1.666;2023-07-30T09:28:59;6.18;;;1.10;;
33987;SDS011;37428;53.580;-1.666;2023-07-30T09:32:20;6.93;;;1.00;;
33987;SDS011;37428;53.580;-1.666;2023-07-30T09:35:29;3.85;;;0.82;;
33987;SDS011;37428;53.580;-1.666;2023-07-30T09:38:38;3.55;;;1.02;;
33987;SDS011;37428;53.580;-1.666;2023-07-30T09:41:41;3.38;;;0.90;;
33987;SDS011;37428;53.580;-1.666;2023-07-30T09:44:43;4.15;;;1.13;;
33987;SDS011;37428;53.580;-1.666;2023-07-30T09:47:55;4.03;;;1.13;;
33987;SDS011;37428;53.580;-1.666;2023-07-30T09:51:01;3.63;;;0.88;;
33987;SDS011;37428;53.580;-1.666;2023-07-30T09:54:17;7.90;;;1.30;;
33987;SDS011;37428;53.580;-1.666;2023-07-30T09:57:21;5.72;;;1.08;;
33987;SDS011;37428;53.580;-1.666;2023-07-30T10:00:25;5.53;;;1.10;;
33987;SDS011;37428;53.580;-1.666;2023-07-30T10:03:32;3.83;;;0.63;;
33987;SDS011;37428;53.580;-1.666;2023-07-30T10:06:39;1.88;;;0.57;;
33987;SDS011;37428;53.580;-1.666;2023-07-30T10:09:45;4.05;;;0.98;;
33987;SDS011;37428;53.580;-1.666;2023-07-30T10:12:49;5.63;;;1.10;;
33987;SDS011;37428;53.580;-1.666;2023-07-30T10:15:57;6.65;;;1.33;;
33987;SDS011;37428;53.580;-1.666;2023-07-30T10:19:05;3.97;;;1.02;;
33987;SDS011;37428;53.580;-1.666;2023-07-30T10:22:20;2.03;;;0.75;;
33987;SDS011;37428;53.580;-1.666;2023-07-30T10:25:41;2.65;;;0.90;;
33987;SDS011;37428;53.580;-1.666;2023-07-30T10:28:47;2.97;;;0.80;;
33987;SDS011;37428;53.580;-1.666;2023-07-30T10:31:52;4.93;;;1.08;;
33987;SDS011;37428;53.580;-1.666;2023-07-30T10:34:56;6.15;;;0.95;;
33987;SDS011;37428;53.580;-1.666;2023-07-30T10:37:59;5.18;;;1.05;;
33987;SDS011;37428;53.580;-1.666;2023-07-30T10:41:02;3.20;;;0.80;;
33987;SDS011;37428;53.580;-1.666;2023-07-30T10:44:06;3.67;;;0.77;;
33987;SDS011;37428;53.580;-1.666;2023-07-30T10:47:08;2.45;;;0.63;;
33987;SDS011;37428;53.580;-1.666;2023-07-30T10:50:12;4.32;;;1.42;;
33987;SDS011;37428;53.580;-1.666;2023-07-30T10:53:17;3.08;;;0.73;;
33987;SDS011;37428;53.580;-1.666;2023-07-30T10:56:28;7.72;;;0.90;;
33987;SDS011;37428;53.580;-1.666;2023-07-30T10:59:32;8.63;;;1.05;;
33987;SDS011;37428;53.580;-1.666;2023-07-30T11:02:40;4.25;;;0.63;;
33987;SDS011;37428;53.580;-1.666;2023-07-30T11:05:47;5.05;;;0.65;;
33987;SDS011;37428;53.580;-1.666;2023-07-30T11:08:56;2.53;;;0.43;;
33987;SDS011;37428;53.580;-1.666;2023-07-30T11:12:08;3.35;;;0.65;;
33987;SDS011;37428;53.580;-1.666;2023-07-30T11:15:18;5.70;;;1.17;;
33987;SDS011;37428;53.580;-1.666;2023-07-30T11:18:22;5.22;;;1.20;;
33987;SDS011;37428;53.580;-1.666;2023-07-30T11:21:27;4.63;;;1.10;;
33987;SDS011;37428;53.580;-1.666;2023-07-30T11:24:34;5.20;;;1.52;;
33987;SDS011;37428;53.580;-1.666;2023-07-30T11:27:46;4.07;;;0.82;;
33987;SDS011;37428;53.580;-1.666;2023-07-30T11:31:16;5.00;;;0.85;;
33987;SDS011;37428;53.580;-1.666;2023-07-30T11:34:28;6.03;;;0.90;;
33987;SDS011;37428;53.580;-1.666;2023-07-30T11:37:39;4.28;;;0.90;;
33987;SDS011;37428;53.580;-1.666;2023-07-30T11:40:44;2.85;;;0.93;;
33987;SDS011;37428;53.580;-1.666;2023-07-30T11:43:55;2.83;;;0.73;;
33987;SDS011;37428;53.580;-1.666;2023-07-30T11:47:03;2.90;;;0.75;;
33987;SDS011;37428;53.580;-1.666;2023-07-30T11:50:06;4.20;;;0.85;;
33987;SDS011;37428;53.580;-1.666;2023-07-30T11:53:10;2.17;;;0.68;;
33987;SDS011;37428;53.580;-1.666;2023-07-30T11:56:23;3.03;;;0.65;;
33987;SDS011;37428;53.580;-1.666;2023-07-30T11:59:26;1.58;;;0.65;;
33987;SDS011;37428;53.580;-1.666;2023-07-30T12:05:37;2.80;;;0.68;;
33987;SDS011;37428;53.580;-1.666;2023-07-30T12:08:49;2.65;;;0.60;;
33987;SDS011;37428;53.580;-1.666;2023-07-30T12:11:58;1.02;;;0.40;;
33987;SDS011;37428;53.580;-1.666;2023-07-30T12:15:09;1.73;;;0.30;;
33987;SDS011;37428;53.580;-1.666;2023-07-30T12:18:13;3.08;;;1.23;;
33987;SDS011;37428;53.580;-1.666;2023-07-30T12:24:19;3.28;;;0.43;;
33987;SDS011;37428;53.580;-1.666;2023-07-30T12:27:23;1.85;;;0.60;;
33987;SDS011;37428;53.580;-1.666;2023-07-30T12:30:27;3.72;;;0.70;;
33987;SDS011;37428;53.580;-1.666;2023-07-30T12:33:54;2.85;;;0.35;;
33987;SDS011;37428;53.580;-1.666;2023-07-30T12:36:57;1.52;;;0.73;;
33987;SDS011;37428;53.580;-1.666;2023-07-30T12:40:04;5.00;;;0.60;;
33987;SDS011;37428;53.580;-1.666;2023-07-30T12:43:08;1.85;;;0.38;;
33987;SDS011;37428;53.580;-1.666;2023-07-30T12:46:20;1.65;;;0.20;;
33987;SDS011;37428;53.580;-1.666;2023-07-30T12:49:24;3.38;;;1.42;;
33987;SDS011;37428;53.580;-1.666;2023-07-30T12:52:33;1.05;;;0.40;;
33987;SDS011;37428;53.580;-1.666;2023-07-30T12:55:41;2.92;;;0.57;;
33987;SDS011;37428;53.580;-1.666;2023-07-30T12:59:16;2.72;;;1.23;;
33987;SDS011;37428;53.580;-1.666;2023-07-30T13:02:20;1.10;;;0.43;;
33987;SDS011;37428;53.580;-1.666;2023-07-30T13:05:28;2.08;;;0.70;;
33987;SDS011;37428;53.580;-1.666;2023-07-30T13:08:31;2.53;;;0.50;;
33987;SDS011;37428;53.580;-1.666;2023-07-30T13:11:37;4.88;;;0.85;;
33987;SDS011;37428;53.580;-1.666;2023-07-30T13:14:40;3.58;;;0.57;;
33987;SDS011;37428;53.580;-1.666;2023-07-30T13:17:42;2.70;;;0.40;;
33987;SDS011;37428;53.580;-1.666;2023-07-30T13:21:02;1.17;;;0.52;;
33987;SDS011;37428;53.580;-1.666;2023-07-30T13:24:06;1.08;;;0.40;;
33987;SDS011;37428;53.580;-1.666;2023-07-30T13:27:11;1.50;;;0.60;;
33987;SDS011;37428;53.580;-1.666;2023-07-30T13:30:18;1.98;;;0.70;;
33987;SDS011;37428;53.580;-1.666;2023-07-30T13:33:21;1.23;;;0.70;;
33987;SDS011;37428;53.580;-1.666;2023-07-30T13:36:25;4.68;;;0.40;;
33987;SDS011;37428;53.580;-1.666;2023-07-30T13:39:28;2.33;;;0.65;;
33987;SDS011;37428;53.580;-1.666;2023-07-30T13:42:39;1.98;;;0.60;;
33987;SDS011;37428;53.580;-1.666;2023-07-30T13:45:41;1.85;;;0.70;;
33987;SDS011;37428;53.580;-1.666;2023-07-30T13:51:45;2.45;;;0.40;;
33987;SDS011;37428;53.580;-1.666;2023-07-30T13:54:47;4.55;;;0.50;;
33987;SDS011;37428;53.580;-1.666;2023-07-30T13:57:53;2.08;;;0.52;;
33987;SDS011;37428;53.580;-1.666;2023-07-30T14:00:55;1.48;;;0.55;;
33987;SDS011;37428;53.580;-1.666;2023-07-30T14:07:06;1.02;;;0.50;;
33987;SDS011;37428;53.580;-1.666;2023-07-30T14:10:08;3.53;;;0.60;;
33987;SDS011;37428;53.580;-1.666;2023-07-30T14:13:17;1.33;;;0.57;;
33987;SDS011;37428;53.580;-1.666;2023-07-30T14:16:20;2.33;;;0.57;;
33987;SDS011;37428;53.580;-1.666;2023-07-30T14:19:22;1.50;;;0.60;;
33987;SDS011;37428;53.580;-1.666;2023-07-30T14:22:27;2.95;;;0.68;;
33987;SDS011;37428;53.580;-1.666;2023-07-30T14:25:33;1.75;;;0.70;;
33987;SDS011;37428;53.580;-1.666;2023-07-30T14:28:37;1.85;;;0.55;;
33987;SDS011;37428;53.580;-1.666;2023-07-30T14:31:41;1.55;;;0.40;;
33987;SDS011;37428;53.580;-1.666;2023-07-30T14:37:59;1.95;;;0.57;;
33987;SDS011;37428;53.580;-1.666;2023-07-30T14:41:03;3.83;;;0.73;;
33987;SDS011;37428;53.580;-1.666;2023-07-30T14:44:08;3.42;;;0.77;;
33987;SDS011;37428;53.580;-1.666;2023-07-30T14:47:11;2.88;;;1.00;;
33987;SDS011;37428;53.580;-1.666;2023-07-30T14:50:42;2.25;;;0.70;;
33987;SDS011;37428;53.580;-1.666;2023-07-30T14:53:48;2.78;;;1.05;;
33987;SDS011;37428;53.580;-1.666;2023-07-30T14:56:50;1.60;;;0.70;;
33987;SDS011;37428;53.580;-1.666;2023-07-30T15:02:59;2.13;;;0.50;;
33987;SDS011;37428;53.580;-1.666;2023-07-30T15:06:08;3.72;;;0.47;;
33987;SDS011;37428;53.580;-1.666;2023-07-30T15:09:11;1.70;;;1.05;;
33987;SDS011;37428;53.580;-1.666;2023-07-30T15:12:25;3.38;;;0.70;;
33987;SDS011;37428;53.580;-1.666;2023-07-30T15:15:30;3.13;;;1.10;;
33987;SDS011;37428;53.580;-1.666;2023-07-30T15:18:32;2.42;;;0.60;;
33987;SDS011;37428;53.580;-1.666;2023-07-30T15:21:45;1.40;;;0.40;;
33987;SDS011;37428;53.580;-1.666;2023-07-30T15:24:54;5.43;;;0.57;;
33987;SDS011;37428;53.580;-1.666;2023-07-30T15:27:58;1.45;;;0.75;;
33987;SDS011;37428;53.580;-1.666;2023-07-30T15:31:17;2.95;;;0.63;;
33987;SDS011;37428;53.580;-1.666;2023-07-30T15:34:19;4.07;;;0.40;;
33987;SDS011;37428;53.580;-1.666;2023-07-30T15:37:23;7.22;;;0.68;;
33987;SDS011;37428;53.580;-1.666;2023-07-30T15:40:39;2.90;;;0.60;;
33987;SDS011;37428;53.580;-1.666;2023-07-30T15:43:42;3.40;;;0.98;;
33987;SDS011;37428;53.580;-1.666;2023-07-30T15:46:46;3.50;;;0.70;;
33987;SDS011;37428;53.580;-1.666;2023-07-30T15:49:49;3.38;;;1.00;;
33987;SDS011;37428;53.580;-1.666;2023-07-30T15:52:58;1.83;;;0.65;;
33987;SDS011;37428;53.580;-1.666;2023-07-30T15:56:00;1.70;;;0.70;;
33987;SDS011;37428;53.580;-1.666;2023-07-30T15:59:04;3.05;;;0.73;;
33987;SDS011;37428;53.580;-1.666;2023-07-30T16:02:12;2.58;;;0.70;;
33987;SDS011;37428;53.580;-1.666;2023-07-30T16:05:15;2.42;;;1.00;;
33987;SDS011;37428;53.580;-1.666;2023-07-30T16:08:17;1.73;;;1.00;;
33987;SDS011;37428;53.580;-1.666;2023-07-30T16:14:35;3.30;;;0.80;;
33987;SDS011;37428;53.580;-1.666;2023-07-30T16:17:41;3.67;;;1.13;;
33987;SDS011;37428;53.580;-1.666;2023-07-30T16:20:44;6.88;;;1.85;;
33987;SDS011;37428;53.580;-1.666;2023-07-30T16:23:48;5.00;;;1.35;;
33987;SDS011;37428;53.580;-1.666;2023-07-30T16:26:56;3.45;;;1.23;;
33987;SDS011;37428;53.580;-1.666;2023-07-30T16:30:15;4.25;;;1.40;;
33987;SDS011;37428;53.580;-1.666;2023-07-30T16:33:21;2.60;;;1.50;;
33987;SDS011;37428;53.580;-1.666;2023-07-30T16:36:24;2.78;;;1.38;;
33987;SDS011;37428;53.580;-1.666;2023-07-30T16:43:06;4.20;;;1.40;;
33987;SDS011;37428;53.580;-1.666;2023-07-30T16:46:11;5.28;;;1.27;;
33987;SDS011;37428;53.580;-1.666;2023-07-30T16:49:16;3.40;;;1.33;;
33987;SDS011;37428;53.580;-1.666;2023-07-30T16:52:18;5.20;;;1.73;;
33987;SDS011;37428;53.580;-1.666;2023-07-30T16:55:20;5.20;;;1.85;;
33987;SDS011;37428;53.580;-1.666;2023-07-30T16:58:23;3.95;;;1.65;;
33987;SDS011;37428;53.580;-1.666;2023-07-30T17:01:29;4.32;;;1.63;;
33987;SDS011;37428;53.580;-1.666;2023-07-30T17:04:33;3.25;;;1.70;;
33987;SDS011;37428;53.580;-1.666;2023-07-30T17:07:39;4.15;;;1.58;;
33987;SDS011;37428;53.580;-1.666;2023-07-30T17:10:41;4.32;;;1.88;;
33987;SDS011;37428;53.580;-1.666;2023-07-30T17:13:46;4.68;;;1.42;;
33987;SDS011;37428;53.580;-1.666;2023-07-30T17:16:50;2.25;;;1.30;;
33987;SDS011;37428;53.580;-1.666;2023-07-30T17:20:06;2.67;;;1.33;;
33987;SDS011;37428;53.580;-1.666;2023-07-30T17:23:09;3.03;;;1.33;;
33987;SDS011;37428;53.580;-1.666;2023-07-30T17:26:15;2.72;;;1.17;;
33987;SDS011;37428;53.580;-1.666;2023-07-30T17:29:17;3.35;;;1.17;;
33987;SDS011;37428;53.580;-1.666;2023-07-30T17:32:19;2.70;;;1.35;;
33987;SDS011;37428;53.580;-1.666;2023-07-30T17:35:24;1.13;;;0.88;;
33987;SDS011;37428;53.580;-1.666;2023-07-30T17:38:26;2.20;;;1.50;;
33987;SDS011;37428;53.580;-1.666;2023-07-30T17:41:31;1.05;;;0.82;;
33987;SDS011;37428;53.580;-1.666;2023-07-30T17:44:34;2.75;;;1.27;;
33987;SDS011;37428;53.580;-1.666;2023-07-30T17:47:42;1.48;;;0.93;;
33987;SDS011;37428;53.580;-1.666;2023-07-30T17:50:48;1.85;;;0.88;;
33987;SDS011;37428;53.580;-1.666;2023-07-30T17:53:50;1.42;;;0.93;;
33987;SDS011;37428;53.580;-1.666;2023-07-30T17:57:00;1.05;;;0.55;;
33987;SDS011;37428;53.580;-1.666;2023-07-30T18:00:03;1.10;;;0.60;;
33987;SDS011;37428;53.580;-1.666;2023-07-30T18:03:06;1.08;;;0.65;;
33987;SDS011;37428;53.580;-1.666;2023-07-30T18:09:27;1.90;;;0.70;;
33987;SDS011;37428;53.580;-1.666;2023-07-30T18:12:32;0.85;;;0.68;;
33987;SDS011;37428;53.580;-1.666;2023-07-30T18:15:34;0.68;;;0.63;;
33987;SDS011;37428;53.580;-1.666;2023-07-30T18:18:37;0.88;;;0.70;;
33987;SDS011;37428;53.580;-1.666;2023-07-30T18:21:40;0.80;;;0.80;;
33987;SDS011;37428;53.580;-1.666;2023-07-30T18:24:58;0.70;;;0.70;;
33987;SDS011;37428;53.580;-1.666;2023-07-30T18:28:02;1.00;;;0.90;;
33987;SDS011;37428;53.580;-1.666;2023-07-30T18:31:04;1.90;;;1.05;;
33987;SDS011;37428;53.580;-1.666;2023-07-30T18:34:06;2.58;;;0.75;;
33987;SDS011;37428;53.580;-1.666;2023-07-30T18:37:31;1.38;;;0.90;;
33987;SDS011;37428;53.580;-1.666;2023-07-30T18:40:41;0.57;;;0.57;;
33987;SDS011;37428;53.580;-1.666;2023-07-30T18:43:43;2.80;;;0.80;;
33987;SDS011;37428;53.580;-1.666;2023-07-30T18:46:51;1.30;;;0.80;;
33987;SDS011;37428;53.580;-1.666;2023-07-30T18:50:14;1.92;;;0.80;;
33987;SDS011;37428;53.580;-1.666;2023-07-30T18:56:46;1.45;;;1.10;;
33987;SDS011;37428;53.580;-1.666;2023-07-30T18:59:48;1.65;;;1.20;;
33987;SDS011;37428;53.580;-1.666;2023-07-30T19:02:52;0.40;;;0.40;;
33987;SDS011;37428;53.580;-1.666;2023-07-30T19:05:57;0.50;;;0.47;;
33987;SDS011;37428;53.580;-1.666;2023-07-30T19:09:04;0.30;;;0.30;;
33987;SDS011;37428;53.580;-1.666;2023-07-30T19:12:08;0.20;;;0.20;;
33987;SDS011;37428;53.580;-1.666;2023-07-30T19:15:14;0.20;;;0.20;;
33987;SDS011;37428;53.580;-1.666;2023-07-30T19:18:24;0.10;;;0.10;;
33987;SDS011;37428;53.580;-1.666;2023-07-30T19:21:26;0.28;;;0.20;;
33987;SDS011;37428;53.580;-1.666;2023-07-30T19:24:44;0.22;;;0.10;;